createdAt,value
2019-05-18T00:00:19.367Z,25.70
2019-05-18T00:02:48.637Z,26.62
2019-05-18T00:05:17.787Z,25.77
2019-05-18T00:07:46.831Z,26.20
2019-05-18T00:10:16.054Z,27.60
2019-05-18T00:12:45.057Z,26.73
2019-05-18T00:15:14.165Z,27.05
2019-05-18T00:17:43.166Z,24.60
2019-05-18T00:20:12.845Z,28.07
2019-05-18T00:22:41.889Z,26.20
2019-05-18T00:25:11.425Z,25.48
2019-05-18T00:27:40.477Z,25.97
2019-05-18T00:30:10.295Z,27.15
2019-05-18T00:32:39.634Z,24.32
2019-05-18T00:35:08.950Z,24.52
2019-05-18T00:37:37.942Z,25.15
2019-05-18T00:40:10.173Z,24.32
2019-05-18T00:42:39.515Z,24.35
2019-05-18T00:45:09.322Z,25.62
2019-05-18T00:47:41.962Z,25.02
2019-05-18T00:50:09.307Z,24.32
2019-05-18T00:52:38.457Z,25.65
2019-05-18T00:55:08.545Z,26.77
2019-05-18T00:57:37.570Z,25.02
2019-05-18T01:00:09.439Z,25.35
2019-05-18T01:02:38.479Z,24.15
2019-05-18T01:05:08.347Z,26.50
2019-05-18T01:07:37.762Z,27.05
2019-05-18T01:10:08.177Z,27.55
2019-05-18T01:12:37.177Z,27.52
2019-05-18T01:15:07.391Z,27.87
2019-05-18T01:17:36.478Z,27.77
2019-05-18T01:20:08.914Z,26.85
2019-05-18T01:22:37.887Z,27.13
2019-05-18T01:25:07.385Z,26.97
2019-05-18T01:27:36.531Z,27.25
2019-05-18T01:30:07.804Z,26.62
2019-05-18T01:32:37.123Z,26.30
2019-05-18T01:35:08.556Z,28.15
2019-05-18T01:37:37.855Z,31.70
2019-05-18T01:40:08.379Z,28.47
2019-05-18T01:42:37.706Z,26.60
2019-05-18T01:45:16.910Z,29.12
2019-05-18T01:47:39.661Z,28.57
2019-05-18T01:50:09.481Z,29.67
2019-05-18T01:52:38.537Z,29.35
2019-05-18T01:55:07.913Z,27.07
2019-05-18T01:57:37.034Z,29.80
2019-05-18T02:00:07.105Z,25.80
2019-05-18T02:02:36.107Z,27.52
2019-05-18T02:05:06.905Z,28.02
2019-05-18T02:07:35.880Z,29.30
2019-05-18T02:10:06.743Z,25.77
2019-05-18T02:12:35.782Z,27.27
2019-05-18T02:15:06.156Z,28.30
2019-05-18T02:17:35.538Z,26.42
2019-05-18T02:20:05.817Z,27.85
2019-05-18T02:22:34.820Z,27.82
2019-05-18T02:25:09.299Z,26.17
2019-05-18T02:27:38.286Z,25.65
2019-05-18T02:30:08.388Z,31.17
2019-05-18T02:32:37.413Z,29.23
2019-05-18T02:35:06.976Z,27.02
2019-05-18T02:37:36.370Z,27.05
2019-05-18T02:40:09.090Z,26.52
2019-05-18T02:42:38.211Z,27.65
2019-05-18T02:45:10.279Z,26.45
2019-05-18T02:47:39.238Z,26.85
2019-05-18T02:50:10.614Z,27.90
2019-05-18T02:52:39.687Z,26.87
2019-05-18T02:55:08.968Z,28.05
2019-05-18T02:57:38.107Z,28.10
2019-05-18T03:00:11.196Z,24.37
2019-05-18T03:02:40.317Z,28.42
2019-05-18T03:05:09.642Z,25.72
2019-05-18T03:07:38.672Z,25.48
2019-05-18T03:10:08.410Z,26.25
2019-05-18T03:12:37.518Z,25.20
2019-05-18T03:15:07.605Z,27.82
2019-05-18T03:17:36.803Z,27.00
2019-05-18T03:20:08.104Z,29.12
2019-05-18T03:22:37.245Z,25.60
2019-05-18T03:25:08.074Z,28.75
2019-05-18T03:27:37.196Z,26.10
2019-05-18T03:30:07.714Z,26.37
2019-05-18T03:32:36.833Z,25.35
2019-05-18T03:35:06.101Z,26.00
2019-05-18T03:37:35.180Z,30.23
2019-05-18T03:40:05.408Z,24.27
2019-05-18T03:42:34.653Z,26.60
2019-05-18T03:45:03.864Z,27.45
2019-05-18T03:47:32.982Z,24.67
2019-05-18T03:50:02.031Z,25.27
2019-05-18T03:52:31.408Z,25.88
2019-05-18T03:55:00.813Z,25.70
2019-05-18T03:57:29.863Z,25.08
2019-05-18T03:59:58.930Z,23.90
2019-05-18T04:02:27.904Z,27.90
2019-05-18T04:04:57.206Z,28.90
2019-05-18T04:07:26.595Z,31.70
2019-05-18T04:09:55.585Z,31.40
2019-05-18T04:12:24.639Z,30.02
2019-05-18T04:14:53.753Z,29.48
2019-05-18T04:17:22.762Z,30.57
2019-05-18T04:19:51.735Z,28.27
2019-05-18T04:22:20.771Z,28.17
2019-05-18T04:24:49.771Z,28.45
2019-05-18T04:27:19.080Z,24.95
2019-05-18T04:29:48.478Z,25.30
2019-05-18T04:32:17.530Z,26.45
2019-05-18T04:34:46.572Z,26.55
2019-05-18T04:37:15.634Z,25.60
2019-05-18T04:39:44.668Z,28.77
2019-05-18T04:42:16.381Z,28.38
2019-05-18T04:44:45.347Z,28.92
2019-05-18T04:47:14.325Z,27.95
2019-05-18T04:49:43.386Z,26.90
2019-05-18T04:52:12.432Z,26.42
2019-05-18T04:54:41.492Z,27.27
2019-05-18T04:57:10.885Z,26.73
2019-05-18T04:59:40.191Z,25.80
2019-05-18T05:02:09.236Z,29.80
2019-05-18T05:04:38.288Z,26.65
2019-05-18T05:07:07.272Z,29.70
2019-05-18T05:09:36.279Z,26.82
2019-05-18T05:12:05.260Z,28.55
2019-05-18T05:14:34.316Z,30.82
2019-05-18T05:17:03.308Z,27.73
2019-05-18T05:19:32.280Z,29.72
2019-05-18T05:22:01.290Z,28.73
2019-05-18T05:24:30.335Z,31.80
2019-05-18T05:26:59.306Z,27.65
2019-05-18T05:29:28.372Z,30.90
2019-05-18T05:31:57.335Z,32.23
2019-05-18T05:34:26.632Z,31.73
2019-05-18T05:36:55.606Z,30.35
2019-05-18T05:39:24.571Z,30.70
2019-05-18T05:41:53.552Z,31.00
2019-05-18T05:44:22.810Z,30.37
2019-05-18T05:46:51.887Z,33.35
2019-05-18T05:49:20.848Z,32.75
2019-05-18T05:51:49.812Z,33.63
2019-05-18T05:54:18.800Z,35.38
2019-05-18T05:56:47.930Z,34.63
2019-05-18T05:59:16.989Z,33.85
2019-05-18T06:01:45.966Z,36.63
2019-05-18T06:04:14.946Z,35.35
2019-05-18T06:06:44.292Z,36.73
2019-05-18T06:09:13.451Z,37.03
2019-05-18T06:11:42.854Z,35.80
2019-05-18T06:14:11.853Z,37.25
2019-05-18T06:16:40.832Z,38.17
2019-05-18T06:19:09.907Z,38.58
2019-05-18T06:21:38.954Z,43.38
2019-05-18T06:24:08.041Z,43.42
2019-05-18T06:26:37.366Z,45.98
2019-05-18T06:29:06.345Z,45.70
2019-05-18T06:31:35.422Z,43.38
2019-05-18T06:34:04.515Z,43.48
2019-05-18T06:36:33.950Z,47.43
2019-05-18T06:39:04.860Z,45.33
2019-05-18T06:41:33.846Z,47.20
2019-05-18T06:44:03.454Z,54.65
2019-05-18T06:46:32.497Z,51.28
2019-05-18T06:49:01.570Z,48.90
2019-05-18T06:51:30.674Z,49.93
2019-05-18T06:53:59.633Z,50.73
2019-05-18T06:56:29.365Z,53.65
2019-05-18T06:59:00.140Z,55.20
2019-05-18T07:01:29.187Z,53.85
2019-05-18T07:03:58.517Z,54.80
2019-05-18T07:06:27.628Z,54.90
2019-05-18T07:08:56.635Z,54.45
2019-05-18T07:11:25.679Z,57.65
2019-05-18T07:13:54.687Z,53.00
2019-05-18T07:16:23.664Z,55.40
2019-05-18T07:18:53.019Z,54.25
2019-05-18T07:21:22.777Z,57.08
2019-05-18T07:23:51.828Z,61.33
2019-05-18T07:26:20.846Z,58.53
2019-05-18T07:28:49.882Z,56.73
2019-05-18T07:31:19.222Z,60.17
2019-05-18T07:33:48.304Z,57.58
2019-05-18T07:36:17.329Z,57.67
2019-05-18T07:38:46.414Z,59.33
2019-05-18T07:41:15.378Z,58.58
2019-05-18T07:43:44.410Z,57.90
2019-05-18T07:46:13.408Z,59.25
2019-05-18T07:48:42.444Z,58.23
2019-05-18T07:51:11.446Z,57.20
2019-05-18T07:53:40.424Z,60.00
2019-05-18T07:56:09.405Z,59.38
2019-05-18T07:58:38.479Z,62.98
2019-05-18T08:01:07.514Z,61.33
2019-05-18T08:03:36.588Z,60.78
2019-05-18T08:06:06.561Z,65.40
2019-05-18T08:08:35.525Z,58.92
2019-05-18T08:11:04.587Z,62.85
2019-05-18T08:13:33.647Z,63.25
2019-05-18T08:16:02.694Z,77.37
2019-05-18T08:18:31.699Z,60.88
2019-05-18T08:21:00.731Z,57.10
2019-05-18T08:23:29.800Z,63.08
2019-05-18T08:25:58.774Z,59.53
2019-05-18T08:28:27.738Z,57.23
2019-05-18T08:30:56.736Z,60.40
2019-05-18T08:33:25.796Z,57.62
2019-05-18T08:35:54.796Z,56.83
2019-05-18T08:38:23.769Z,58.35
2019-05-18T08:40:52.791Z,55.00
2019-05-18T08:43:21.847Z,57.90
2019-05-18T08:45:50.931Z,52.62
2019-05-18T08:48:19.971Z,56.10
2019-05-18T08:50:49.091Z,59.40
2019-05-18T08:53:18.141Z,58.52
2019-05-18T08:55:47.116Z,66.20
2019-05-18T08:58:16.132Z,66.10
2019-05-18T09:00:45.195Z,60.40
2019-05-18T09:03:14.248Z,56.63
2019-05-18T09:05:43.303Z,56.75
2019-05-18T09:08:12.361Z,56.70
2019-05-18T09:10:41.394Z,60.43
2019-05-18T09:13:10.419Z,59.93
2019-05-18T09:15:39.460Z,58.87
2019-05-18T09:18:08.424Z,52.65
2019-05-18T09:20:37.431Z,55.75
2019-05-18T09:23:06.743Z,55.65
2019-05-18T09:25:35.823Z,55.60
2019-05-18T09:28:04.939Z,53.90
2019-05-18T09:30:34.063Z,55.60
2019-05-18T09:33:03.114Z,52.78
2019-05-18T09:35:32.192Z,51.73
2019-05-18T09:38:01.202Z,54.63
2019-05-18T09:40:30.161Z,52.55
2019-05-18T09:42:59.265Z,47.88
2019-05-18T09:45:28.388Z,50.20
2019-05-18T09:47:57.359Z,49.30
2019-05-18T09:50:26.452Z,52.50
2019-05-18T09:52:55.495Z,50.88
2019-05-18T09:55:24.460Z,53.70
2019-05-18T09:57:53.790Z,51.40
2019-05-18T10:00:23.931Z,51.53
2019-05-18T10:02:53.102Z,48.40
2019-05-18T10:05:22.198Z,49.40
2019-05-18T10:07:51.293Z,51.53
2019-05-18T10:10:20.820Z,49.45
2019-05-18T10:12:51.506Z,50.48
2019-05-18T10:15:20.754Z,51.68
2019-05-18T10:17:49.806Z,50.17
2019-05-18T10:20:19.786Z,47.98
2019-05-18T10:22:59.176Z,46.15
2019-05-18T10:25:20.325Z,49.48
2019-05-18T10:27:49.344Z,45.38
2019-05-18T10:30:20.131Z,46.42
2019-05-18T10:32:49.158Z,45.10
2019-05-18T10:35:18.219Z,46.90
2019-05-18T10:37:47.182Z,45.10
2019-05-18T10:40:17.102Z,45.98
2019-05-18T10:42:46.071Z,43.50
2019-05-18T10:45:15.213Z,45.17
2019-05-18T10:47:44.253Z,45.33
2019-05-18T10:50:13.404Z,43.58
2019-05-18T10:52:42.486Z,42.50
2019-05-18T10:55:12.490Z,44.15
2019-05-18T10:57:41.539Z,43.02
2019-05-18T11:00:12.163Z,43.25
2019-05-18T11:02:41.182Z,40.88
2019-05-18T11:05:10.770Z,39.65
2019-05-18T11:07:41.575Z,43.10
2019-05-18T11:10:11.360Z,41.68
2019-05-18T11:12:40.491Z,40.83
2019-05-18T11:15:10.687Z,45.08
2019-05-18T11:17:39.792Z,37.88
2019-05-18T11:20:11.603Z,41.18
2019-05-18T11:22:40.793Z,39.00
2019-05-18T11:25:10.945Z,41.25
2019-05-18T11:27:40.025Z,41.33
2019-05-18T11:30:10.657Z,39.92
2019-05-18T11:32:39.831Z,37.95
2019-05-18T11:35:11.833Z,38.95
2019-05-18T11:37:40.885Z,41.25
2019-05-18T11:40:12.255Z,38.88
2019-05-18T11:42:41.270Z,37.10
2019-05-18T11:45:12.673Z,35.05
2019-05-18T11:47:41.725Z,38.48
2019-05-18T11:50:11.951Z,37.90
2019-05-18T11:52:41.152Z,34.55
2019-05-18T11:55:10.538Z,38.65
2019-05-18T11:57:39.583Z,35.63
2019-05-18T12:00:10.996Z,31.65
2019-05-18T12:02:40.042Z,30.97
2019-05-18T12:05:09.664Z,20.85
2019-05-18T12:07:38.776Z,21.33
2019-05-18T12:10:09.347Z,22.48
2019-05-18T12:12:38.578Z,22.20
2019-05-18T12:15:08.843Z,25.17
2019-05-18T12:17:38.107Z,27.93
2019-05-18T12:20:10.290Z,23.77
2019-05-18T12:22:39.716Z,21.50
2019-05-18T12:25:09.370Z,20.02
2019-05-18T12:27:38.570Z,19.37
2019-05-18T12:30:09.611Z,19.73
2019-05-18T12:32:38.713Z,19.48
2019-05-18T12:35:09.124Z,16.67
2019-05-18T12:37:38.111Z,18.37
2019-05-18T12:40:08.902Z,20.62
2019-05-18T12:42:38.428Z,17.48
2019-05-18T12:45:09.749Z,18.90
2019-05-18T12:47:39.189Z,16.40
2019-05-18T12:50:10.206Z,13.25
2019-05-18T12:52:39.174Z,15.18
2019-05-18T12:55:09.151Z,28.32
2019-05-18T12:57:38.288Z,15.55
2019-05-18T13:00:12.948Z,12.30
2019-05-18T13:02:41.977Z,11.33
2019-05-18T13:05:12.086Z,10.95
2019-05-18T13:07:41.058Z,12.28
2019-05-18T13:10:11.352Z,12.93
2019-05-18T13:12:40.695Z,12.90
2019-05-18T13:15:11.274Z,11.00
2019-05-18T13:17:40.303Z,11.95
2019-05-18T13:20:11.691Z,11.57
2019-05-18T13:22:40.729Z,11.63
2019-05-18T13:25:11.861Z,10.13
2019-05-18T13:27:40.971Z,12.85
2019-05-18T13:30:11.979Z,12.95
2019-05-18T13:32:41.077Z,12.13
2019-05-18T13:35:11.819Z,13.00
2019-05-18T13:37:41.145Z,13.03
2019-05-18T13:40:10.828Z,12.28
2019-05-18T13:42:39.797Z,11.35
2019-05-18T13:45:09.894Z,11.40
2019-05-18T13:47:39.839Z,14.73
2019-05-18T13:50:09.141Z,10.48
2019-05-18T13:52:38.218Z,11.88
2019-05-18T13:55:07.518Z,15.28
2019-05-18T13:57:37.057Z,12.93
2019-05-18T14:00:07.229Z,14.03
2019-05-18T14:02:36.408Z,11.20
2019-05-18T14:05:06.800Z,14.50
2019-05-18T14:07:35.777Z,25.00
2019-05-18T14:10:12.479Z,11.83
2019-05-18T14:12:41.173Z,12.80
2019-05-18T14:15:11.983Z,12.82
2019-05-18T14:17:41.027Z,13.28
2019-05-18T14:20:10.792Z,13.80
2019-05-18T14:22:39.802Z,12.80
2019-05-18T14:25:18.802Z,12.43
2019-05-18T14:27:40.767Z,11.70
2019-05-18T14:30:10.092Z,12.78
2019-05-18T14:32:39.373Z,11.90
2019-05-18T14:35:09.012Z,12.50
2019-05-18T14:37:37.964Z,14.73
2019-05-18T14:40:08.183Z,12.45
2019-05-18T14:42:37.316Z,13.55
2019-05-18T14:45:08.772Z,13.95
2019-05-18T14:47:37.771Z,12.45
2019-05-18T14:50:09.243Z,12.43
2019-05-18T14:52:38.268Z,14.00
2019-05-18T14:55:07.629Z,10.55
2019-05-18T14:57:36.729Z,11.85
2019-05-18T15:00:08.050Z,12.43
2019-05-18T15:02:37.034Z,10.70
2019-05-18T15:05:09.179Z,12.65
2019-05-18T15:07:38.186Z,10.98
2019-05-18T15:10:08.285Z,11.73
2019-05-18T15:12:37.438Z,11.45
2019-05-18T15:15:08.123Z,12.15
2019-05-18T15:17:37.169Z,11.70
2019-05-18T15:20:09.166Z,10.43
2019-05-18T15:22:38.256Z,10.90
2019-05-18T15:25:07.597Z,10.38
2019-05-18T15:27:36.646Z,10.13
2019-05-18T15:30:07.632Z,14.10
2019-05-18T15:32:36.762Z,8.53
2019-05-18T15:35:09.575Z,7.92
2019-05-18T15:37:39.296Z,9.30
2019-05-18T15:40:08.791Z,10.68
2019-05-18T15:42:37.767Z,11.38
2019-05-18T15:45:10.181Z,9.85
2019-05-18T15:47:39.201Z,10.00
2019-05-18T15:50:08.714Z,13.25
2019-05-18T15:52:37.765Z,10.13
2019-05-18T15:55:08.560Z,8.53
2019-05-18T15:57:37.758Z,15.53
2019-05-18T16:00:08.144Z,10.93
2019-05-18T16:02:37.196Z,11.83
2019-05-18T16:05:07.289Z,8.85
2019-05-18T16:07:36.498Z,10.85
2019-05-18T16:10:06.261Z,8.50
2019-05-18T16:12:35.290Z,8.93
2019-05-18T16:15:06.742Z,14.30
2019-05-18T16:17:39.580Z,10.40
2019-05-18T16:20:09.743Z,13.18
2019-05-18T16:22:38.796Z,8.48
2019-05-18T16:25:08.828Z,10.03
2019-05-18T16:27:37.886Z,10.05
2019-05-18T16:30:08.556Z,8.85
2019-05-18T16:32:37.533Z,10.28
2019-05-18T16:35:09.444Z,9.95
2019-05-18T16:37:38.475Z,9.28
2019-05-18T16:40:08.771Z,9.60
2019-05-18T16:42:37.824Z,8.68
2019-05-18T16:45:08.568Z,9.18
2019-05-18T16:47:37.626Z,8.55
2019-05-18T16:50:08.263Z,9.45
2019-05-18T16:52:37.410Z,10.75
2019-05-18T16:55:08.075Z,8.95
2019-05-18T16:57:37.171Z,18.40
2019-05-18T17:00:11.327Z,15.63
2019-05-18T17:02:40.461Z,13.43
2019-05-18T17:05:10.264Z,16.77
2019-05-18T17:07:39.266Z,14.38
2019-05-18T17:10:08.754Z,12.55
2019-05-18T17:12:37.899Z,14.68
2019-05-18T17:15:09.051Z,19.02
2019-05-18T17:17:38.169Z,20.37
2019-05-18T17:20:08.195Z,18.52
2019-05-18T17:22:37.228Z,18.37
2019-05-18T17:25:06.666Z,18.48
2019-05-18T17:27:35.713Z,19.82
2019-05-18T17:30:07.029Z,19.52
2019-05-18T17:32:36.074Z,22.02
2019-05-18T17:35:07.035Z,23.10
2019-05-18T17:37:36.093Z,23.10
2019-05-18T17:40:07.069Z,24.50
2019-05-18T17:42:36.228Z,24.67
2019-05-18T17:45:09.277Z,23.35
2019-05-18T17:47:38.670Z,23.57
2019-05-18T17:50:10.342Z,23.20
2019-05-18T17:52:39.737Z,24.82
2019-05-18T17:55:10.351Z,23.12
2019-05-18T17:57:39.780Z,26.75
2019-05-18T18:00:10.617Z,30.02
2019-05-18T18:02:40.127Z,24.25
2019-05-18T18:05:09.244Z,26.33
2019-05-18T18:07:38.375Z,25.75
2019-05-18T18:10:07.967Z,26.23
2019-05-18T18:12:37.326Z,26.17
2019-05-18T18:15:07.603Z,26.82
2019-05-18T18:17:36.585Z,26.05
2019-05-18T18:20:06.732Z,25.85
2019-05-18T18:22:35.769Z,28.25
2019-05-18T18:25:06.187Z,27.48
2019-05-18T18:27:35.223Z,28.40
2019-05-18T18:30:07.824Z,29.35
2019-05-18T18:32:36.877Z,31.17
2019-05-18T18:35:06.800Z,30.72
2019-05-18T18:37:35.875Z,28.65
2019-05-18T18:40:06.191Z,27.37
2019-05-18T18:42:35.511Z,28.05
2019-05-18T18:45:06.949Z,29.00
2019-05-18T18:47:35.992Z,29.25
2019-05-18T18:50:07.131Z,29.63
2019-05-18T18:52:36.244Z,30.75
2019-05-18T18:55:07.537Z,36.53
2019-05-18T18:57:41.035Z,31.17
2019-05-18T19:00:08.244Z,28.20
2019-05-18T19:02:37.267Z,27.80
2019-05-18T19:05:07.189Z,31.00
2019-05-18T19:07:36.270Z,36.83
2019-05-18T19:10:07.035Z,32.48
2019-05-18T19:12:36.627Z,28.38
2019-05-18T19:15:10.562Z,34.25
2019-05-18T19:17:39.603Z,34.23
2019-05-18T19:20:09.081Z,34.35
2019-05-18T19:22:38.329Z,31.15
2019-05-18T19:25:07.566Z,33.95
2019-05-18T19:27:36.650Z,33.05
2019-05-18T19:30:10.442Z,29.15
2019-05-18T19:32:39.446Z,33.60
2019-05-18T19:35:08.870Z,32.25
2019-05-18T19:37:37.912Z,29.35
2019-05-18T19:40:07.851Z,29.65
2019-05-18T19:42:36.827Z,32.98
2019-05-18T19:45:09.469Z,32.38
2019-05-18T19:47:38.588Z,35.73
2019-05-18T19:50:08.974Z,35.15
2019-05-18T19:52:38.038Z,35.23
2019-05-18T19:55:07.676Z,31.82
2019-05-18T19:57:36.978Z,35.35
2019-05-18T20:00:07.111Z,35.40
2019-05-18T20:02:36.155Z,31.90
2019-05-18T20:05:09.613Z,32.95
2019-05-18T20:07:38.906Z,35.40
2019-05-18T20:10:09.241Z,35.95
2019-05-18T20:12:38.349Z,36.10
2019-05-18T20:15:09.631Z,36.10
2019-05-18T20:17:38.606Z,37.95
2019-05-18T20:20:10.190Z,52.48
2019-05-18T20:22:39.517Z,36.17
2019-05-18T20:25:09.767Z,39.13
2019-05-18T20:27:39.159Z,38.25
2019-05-18T20:30:10.235Z,36.23
2019-05-18T20:32:39.520Z,36.45
2019-05-18T20:35:08.721Z,34.48
2019-05-18T20:37:37.707Z,36.35
2019-05-18T20:40:07.499Z,37.80
2019-05-18T20:42:37.682Z,37.50
2019-05-18T20:45:07.788Z,36.08
2019-05-18T20:47:36.900Z,40.52
2019-05-18T20:50:07.027Z,35.95
2019-05-18T20:52:37.166Z,35.75
2019-05-18T20:55:06.898Z,37.38
2019-05-18T20:57:35.954Z,37.85
2019-05-18T21:00:06.645Z,33.38
2019-05-18T21:02:35.685Z,36.75
2019-05-18T21:05:05.833Z,36.65
2019-05-18T21:07:34.960Z,36.77
2019-05-18T21:10:07.941Z,37.30
2019-05-18T21:12:36.982Z,39.03
2019-05-18T21:15:08.124Z,36.90
2019-05-18T21:17:37.209Z,36.17
2019-05-18T21:20:07.194Z,33.00
2019-05-18T21:22:36.250Z,32.98
2019-05-18T21:25:06.032Z,32.50
2019-05-18T21:27:35.142Z,37.73
2019-05-18T21:30:06.698Z,36.83
2019-05-18T21:32:35.740Z,43.80
2019-05-18T21:35:07.353Z,45.73
2019-05-18T21:37:36.386Z,49.77
2019-05-18T21:40:06.637Z,46.10
2019-05-18T21:42:35.677Z,45.43
2019-05-18T21:45:06.411Z,43.23
2019-05-18T21:47:35.497Z,45.43
2019-05-18T21:50:06.580Z,47.38
2019-05-18T21:52:35.568Z,50.28
2019-05-18T21:55:07.246Z,58.40
2019-05-18T21:57:36.253Z,60.90
2019-05-18T22:00:06.326Z,60.17
2019-05-18T22:02:35.862Z,60.67
2019-05-18T22:05:05.563Z,64.55
2019-05-18T22:07:35.101Z,63.20
2019-05-18T22:10:07.480Z,67.00
2019-05-18T22:12:36.467Z,64.82
2019-05-18T22:15:07.414Z,63.95
2019-05-18T22:17:38.164Z,63.33
2019-05-18T22:20:07.531Z,70.17
2019-05-18T22:22:36.575Z,74.75
2019-05-18T22:25:05.688Z,72.55
2019-05-18T22:27:34.670Z,66.75
2019-05-18T22:30:04.695Z,71.28
2019-05-18T22:32:33.673Z,74.42
2019-05-18T22:35:02.633Z,71.30
2019-05-18T22:37:32.031Z,70.15
2019-05-18T22:40:01.007Z,74.47
2019-05-18T22:42:29.975Z,70.30
2019-05-18T22:44:58.948Z,75.92
2019-05-18T22:47:27.917Z,79.90
2019-05-18T22:49:56.908Z,83.12
2019-05-18T22:52:25.865Z,83.05
2019-05-18T22:54:54.847Z,80.83
2019-05-18T22:57:23.842Z,83.30
2019-05-18T22:59:52.881Z,83.03
2019-05-18T23:02:21.868Z,86.12
2019-05-18T23:04:50.870Z,82.53
2019-05-18T23:07:19.937Z,81.92
2019-05-18T23:09:48.982Z,83.67
2019-05-18T23:12:18.371Z,87.88
2019-05-18T23:14:47.481Z,86.57
2019-05-18T23:17:16.454Z,88.00
2019-05-18T23:19:45.433Z,85.47
2019-05-18T23:22:14.408Z,83.35
2019-05-18T23:24:43.450Z,87.10
2019-05-18T23:27:12.419Z,88.52
2019-05-18T23:29:41.518Z,85.55
2019-05-18T23:32:10.857Z,82.30
2019-05-18T23:34:40.229Z,84.20
2019-05-18T23:37:09.226Z,84.65
2019-05-18T23:39:38.275Z,87.40
2019-05-18T23:42:07.286Z,84.95
2019-05-18T23:44:36.342Z,83.07
2019-05-18T23:47:05.306Z,89.52
2019-05-18T23:49:34.718Z,87.40
2019-05-18T23:52:03.768Z,88.42
2019-05-18T23:54:32.775Z,90.30
2019-05-18T23:57:01.731Z,90.00
2019-05-18T23:59:30.708Z,87.55
